sensor_id;sensor_type;location;lat;lon;timestamp;pressure;altitude;pressure_sealevel;temperature;humidity
74403;BME280;62837;51.082;13.744;2023-04-10T00:00:17;101329.39;;;6.80;66.39
74403;BME280;62837;51.082;13.744;2023-04-10T00:02:48;101331.33;;;6.75;66.41
74403;BME280;62837;51.082;13.744;2023-04-10T00:05:20;101330.44;;;6.73;66.54
74403;BME280;62837;51.082;13.744;2023-04-10T00:07:50;101329.67;;;6.74;66.54
74403;BME280;62837;51.082;13.744;2023-04-10T00:10:22;101329.59;;;6.73;66.47
74403;BME280;62837;51.082;13.744;2023-04-10T00:12:54;101320.78;;;6.72;66.49
74403;BME280;62837;51.082;13.744;2023-04-10T00:15:25;101315.77;;;6.69;66.75
74403;BME280;62837;51.082;13.744;2023-04-10T00:17:57;101316.87;;;6.64;66.79
74403;BME280;62837;51.082;13.744;2023-04-10T00:20:28;101318.52;;;6.58;66.97
74403;BME280;62837;51.082;13.744;2023-04-10T00:22:59;101323.63;;;6.53;67.03
74403;BME280;62837;51.082;13.744;2023-04-10T00:25:29;101324.13;;;6.53;67.04
74403;BME280;62837;51.082;13.744;2023-04-10T00:28:00;101317.45;;;6.53;67.00
74403;BME280;62837;51.082;13.744;2023-04-10T00:30:31;101315.98;;;6.50;67.06
74403;BME280;62837;51.082;13.744;2023-04-10T00:33:02;101311.15;;;6.43;67.24
74403;BME280;62837;51.082;13.744;2023-04-10T00:35:33;101308.66;;;6.39;67.37
74403;BME280;62837;51.082;13.744;2023-04-10T00:38:04;101309.30;;;6.38;67.19
74403;BME280;62837;51.082;13.744;2023-04-10T00:40:35;101308.91;;;6.37;67.17
74403;BME280;62837;51.082;13.744;2023-04-10T00:43:05;101306.10;;;6.35;67.16
74403;BME280;62837;51.082;13.744;2023-04-10T00:45:36;101305.42;;;6.32;67.23
74403;BME280;62837;51.082;13.744;2023-04-10T00:48:08;101303.75;;;6.31;67.06
74403;BME280;62837;51.082;13.744;2023-04-10T00:50:39;101304.16;;;6.30;66.99
74403;BME280;62837;51.082;13.744;2023-04-10T00:53:10;101304.73;;;6.29;67.04
74403;BME280;62837;51.082;13.744;2023-04-10T00:55:41;101301.89;;;6.28;67.00
74403;BME280;62837;51.082;13.744;2023-04-10T00:58:12;101303.36;;;6.24;66.95
74403;BME280;62837;51.082;13.744;2023-04-10T01:00:43;101301.67;;;6.17;67.01
74403;BME280;62837;51.082;13.744;2023-04-10T01:03:16;101303.91;;;6.05;67.24
74403;BME280;62837;51.082;13.744;2023-04-10T01:05:56;101303.69;;;5.97;67.49
74403;BME280;62837;51.082;13.744;2023-04-10T01:08:38;101307.73;;;5.88;67.61
74403;BME280;62837;51.082;13.744;2023-04-10T01:11:21;101312.81;;;5.84;67.92
74403;BME280;62837;51.082;13.744;2023-04-10T01:14:00;101315.17;;;5.85;67.85
74403;BME280;62837;51.082;13.744;2023-04-10T01:16:39;101316.64;;;5.87;67.65
74403;BME280;62837;51.082;13.744;2023-04-10T01:19:20;101316.67;;;5.87;67.72
74403;BME280;62837;51.082;13.744;2023-04-10T01:21:56;101316.98;;;5.86;67.68
74403;BME280;62837;51.082;13.744;2023-04-10T01:24:41;101317.34;;;5.80;67.90
74403;BME280;62837;51.082;13.744;2023-04-10T01:27:28;101316.16;;;5.77;68.01
74403;BME280;62837;51.082;13.744;2023-04-10T01:30:07;101314.95;;;5.78;68.06
74403;BME280;62837;51.082;13.744;2023-04-10T01:32:42;101320.95;;;5.79;68.14
74403;BME280;62837;51.082;13.744;2023-04-10T01:35:15;101320.98;;;5.76;68.35
74403;BME280;62837;51.082;13.744;2023-04-10T01:37:48;101319.88;;;5.72;68.37
74403;BME280;62837;51.082;13.744;2023-04-10T01:40:22;101319.44;;;5.69;68.19
74403;BME280;62837;51.082;13.744;2023-04-10T01:42:56;101319.23;;;5.69;68.28
74403;BME280;62837;51.082;13.744;2023-04-10T01:45:37;101322.46;;;5.68;68.17
74403;BME280;62837;51.082;13.744;2023-04-10T01:48:09;101319.84;;;5.61;68.23
74403;BME280;62837;51.082;13.744;2023-04-10T01:50:41;101315.08;;;5.58;68.25
74403;BME280;62837;51.082;13.744;2023-04-10T01:53:12;101315.59;;;5.56;68.38
74403;BME280;62837;51.082;13.744;2023-04-10T01:55:44;101313.67;;;5.55;68.29
74403;BME280;62837;51.082;13.744;2023-04-10T01:58:15;101315.63;;;5.48;68.40
74403;BME280;62837;51.082;13.744;2023-04-10T02:00:46;101311.64;;;5.40;68.66
74403;BME280;62837;51.082;13.744;2023-04-10T02:03:17;101307.05;;;5.33;68.78
74403;BME280;62837;51.082;13.744;2023-04-10T02:05:56;101306.78;;;5.34;69.13
74403;BME280;62837;51.082;13.744;2023-04-10T02:08:35;101308.17;;;5.33;68.91
74403;BME280;62837;51.082;13.744;2023-04-10T02:11:14;101307.38;;;5.31;69.07
74403;BME280;62837;51.082;13.744;2023-04-10T02:13:49;101297.61;;;5.21;69.20
74403;BME280;62837;51.082;13.744;2023-04-10T02:16:22;101305.65;;;5.22;69.23
74403;BME280;62837;51.082;13.744;2023-04-10T02:18:54;101301.91;;;5.23;69.16
74403;BME280;62837;51.082;13.744;2023-04-10T02:21:25;101306.05;;;5.26;69.15
74403;BME280;62837;51.082;13.744;2023-04-10T02:23:58;101302.73;;;5.28;69.12
74403;BME280;62837;51.082;13.744;2023-04-10T02:26:29;101301.59;;;5.26;69.15
74403;BME280;62837;51.082;13.744;2023-04-10T02:29:00;101302.06;;;5.19;69.07
74403;BME280;62837;51.082;13.744;2023-04-10T02:31:31;101297.75;;;5.12;69.22
74403;BME280;62837;51.082;13.744;2023-04-10T02:34:01;101295.48;;;5.11;69.40
74403;BME280;62837;51.082;13.744;2023-04-10T02:36:32;101288.83;;;5.07;69.23
74403;BME280;62837;51.082;13.744;2023-04-10T02:39:04;101299.34;;;5.05;69.22
74403;BME280;62837;51.082;13.744;2023-04-10T02:41:38;101296.83;;;4.98;69.32
74403;BME280;62837;51.082;13.744;2023-04-10T02:44:09;101295.41;;;4.94;69.63
74403;BME280;62837;51.082;13.744;2023-04-10T02:46:40;101297.60;;;4.90;69.70
74403;BME280;62837;51.082;13.744;2023-04-10T02:49:11;101300.67;;;4.90;69.45
74403;BME280;62837;51.082;13.744;2023-04-10T02:51:42;101297.23;;;4.91;69.79
74403;BME280;62837;51.082;13.744;2023-04-10T02:54:13;101297.30;;;4.92;69.54
74403;BME280;62837;51.082;13.744;2023-04-10T02:56:44;101293.75;;;4.96;69.48
74403;BME280;62837;51.082;13.744;2023-04-10T02:59:14;101289.58;;;4.98;69.32
74403;BME280;62837;51.082;13.744;2023-04-10T03:01:46;101287.70;;;5.00;69.37
74403;BME280;62837;51.082;13.744;2023-04-10T03:04:17;101291.89;;;5.00;69.55
74403;BME280;62837;51.082;13.744;2023-04-10T03:06:48;101291.23;;;4.94;69.42
74403;BME280;62837;51.082;13.744;2023-04-10T03:09:19;101290.47;;;4.87;69.52
74403;BME280;62837;51.082;13.744;2023-04-10T03:11:50;101292.16;;;4.84;69.90
74403;BME280;62837;51.082;13.744;2023-04-10T03:14:20;101296.39;;;4.78;70.35
74403;BME280;62837;51.082;13.744;2023-04-10T03:16:51;101301.31;;;4.74;70.49
74403;BME280;62837;51.082;13.744;2023-04-10T03:19:22;101300.67;;;4.77;70.67
74403;BME280;62837;51.082;13.744;2023-04-10T03:21:55;101307.25;;;4.83;70.90
74403;BME280;62837;51.082;13.744;2023-04-10T03:24:26;101308.63;;;4.89;70.60
74403;BME280;62837;51.082;13.744;2023-04-10T03:26:58;101311.13;;;4.93;70.82
74403;BME280;62837;51.082;13.744;2023-04-10T03:29:30;101308.73;;;4.96;70.84
74403;BME280;62837;51.082;13.744;2023-04-10T03:32:01;101303.88;;;5.00;70.42
74403;BME280;62837;51.082;13.744;2023-04-10T03:34:32;101296.10;;;5.02;71.03
74403;BME280;62837;51.082;13.744;2023-04-10T03:37:03;101298.02;;;5.09;71.01
74403;BME280;62837;51.082;13.744;2023-04-10T03:39:33;101294.40;;;5.12;71.09
74403;BME280;62837;51.082;13.744;2023-04-10T03:42:05;101300.13;;;5.18;71.14
74403;BME280;62837;51.082;13.744;2023-04-10T03:44:37;101308.79;;;5.24;70.65
74403;BME280;62837;51.082;13.744;2023-04-10T03:47:09;101307.97;;;5.25;70.95
74403;BME280;62837;51.082;13.744;2023-04-10T03:49:42;101312.58;;;5.22;71.33
74403;BME280;62837;51.082;13.744;2023-04-10T03:52:13;101307.92;;;5.17;71.42
74403;BME280;62837;51.082;13.744;2023-04-10T03:54:44;101305.54;;;5.19;71.47
74403;BME280;62837;51.082;13.744;2023-04-10T03:57:24;101306.76;;;5.19;71.78
74403;BME280;62837;51.082;13.744;2023-04-10T03:59:59;101307.07;;;5.15;71.81
74403;BME280;62837;51.082;13.744;2023-04-10T04:02:50;101308.11;;;5.14;71.88
74403;BME280;62837;51.082;13.744;2023-04-10T04:05:41;101311.67;;;5.14;71.88
74403;BME280;62837;51.082;13.744;2023-04-10T04:08:31;101308.40;;;5.14;72.10
74403;BME280;62837;51.082;13.744;2023-04-10T04:11:27;101311.90;;;5.16;71.66
74403;BME280;62837;51.082;13.744;2023-04-10T04:14:04;101312.27;;;5.16;71.45
74403;BME280;62837;51.082;13.744;2023-04-10T04:16:54;101318.55;;;5.18;71.30
74403;BME280;62837;51.082;13.744;2023-04-10T04:19:25;101322.32;;;5.17;71.42
74403;BME280;62837;51.082;13.744;2023-04-10T04:22:23;101326.97;;;5.19;71.20
74403;BME280;62837;51.082;13.744;2023-04-10T04:25:14;101327.52;;;5.19;71.07
74403;BME280;62837;51.082;13.744;2023-04-10T04:28:23;101327.09;;;5.19;71.06
74403;BME280;62837;51.082;13.744;2023-04-10T04:31:13;101327.81;;;5.19;70.96
74403;BME280;62837;51.082;13.744;2023-04-10T04:34:10;101326.81;;;5.20;70.97
74403;BME280;62837;51.082;13.744;2023-04-10T04:36:41;101329.20;;;5.20;70.99
74403;BME280;62837;51.082;13.744;2023-04-10T04:39:25;101334.04;;;5.20;70.85
74403;BME280;62837;51.082;13.744;2023-04-10T04:42:06;101337.40;;;5.21;70.99
74403;BME280;62837;51.082;13.744;2023-04-10T04:44:51;101336.13;;;5.20;70.97
74403;BME280;62837;51.082;13.744;2023-04-10T04:47:48;101334.91;;;5.18;71.06
74403;BME280;62837;51.082;13.744;2023-04-10T04:50:29;101335.40;;;5.18;70.89
74403;BME280;62837;51.082;13.744;2023-04-10T04:53:25;101336.00;;;5.22;71.12
74403;BME280;62837;51.082;13.744;2023-04-10T04:56:28;101330.42;;;5.26;71.17
74403;BME280;62837;51.082;13.744;2023-04-10T04:59:25;101327.05;;;5.25;71.34
74403;BME280;62837;51.082;13.744;2023-04-10T05:02:15;101332.63;;;5.22;71.33
74403;BME280;62837;51.082;13.744;2023-04-10T05:05:07;101330.81;;;5.15;71.64
74403;BME280;62837;51.082;13.744;2023-04-10T05:07:46;101332.23;;;5.11;71.91
74403;BME280;62837;51.082;13.744;2023-04-10T05:10:28;101334.98;;;5.11;71.93
74403;BME280;62837;51.082;13.744;2023-04-10T05:13:17;101333.83;;;5.10;71.95
74403;BME280;62837;51.082;13.744;2023-04-10T05:16:08;101337.11;;;5.10;72.32
74403;BME280;62837;51.082;13.744;2023-04-10T05:18:57;101334.09;;;5.17;72.00
74403;BME280;62837;51.082;13.744;2023-04-10T05:21:57;101335.57;;;5.26;72.10
74403;BME280;62837;51.082;13.744;2023-04-10T05:24:44;101335.48;;;5.33;72.00
74403;BME280;62837;51.082;13.744;2023-04-10T05:27:21;101336.05;;;5.38;71.65
74403;BME280;62837;51.082;13.744;2023-04-10T05:30:12;101340.23;;;5.41;71.96
74403;BME280;62837;51.082;13.744;2023-04-10T05:33:00;101343.13;;;5.41;72.07
74403;BME280;62837;51.082;13.744;2023-04-10T05:35:36;101340.92;;;5.48;72.14
74403;BME280;62837;51.082;13.744;2023-04-10T05:38:33;101337.08;;;5.77;71.75
74403;BME280;62837;51.082;13.744;2023-04-10T05:41:18;101347.13;;;6.22;71.31
74403;BME280;62837;51.082;13.744;2023-04-10T05:44:20;101342.76;;;6.64;70.69
74403;BME280;62837;51.082;13.744;2023-04-10T05:47:17;101339.13;;;7.00;69.66
74403;BME280;62837;51.082;13.744;2023-04-10T05:49:57;101339.80;;;7.35;68.99
74403;BME280;62837;51.082;13.744;2023-04-10T05:52:51;101337.73;;;7.76;68.34
74403;BME280;62837;51.082;13.744;2023-04-10T05:55:31;101339.73;;;7.95;67.70
74403;BME280;62837;51.082;13.744;2023-04-10T05:58:25;101333.77;;;8.07;67.03
74403;BME280;62837;51.082;13.744;2023-04-10T06:01:22;101333.08;;;8.24;66.43
74403;BME280;62837;51.082;13.744;2023-04-10T06:03:59;101336.09;;;8.43;66.04
74403;BME280;62837;51.082;13.744;2023-04-10T06:06:32;101323.08;;;8.69;65.72
74403;BME280;62837;51.082;13.744;2023-04-10T06:09:03;101329.33;;;9.05;65.21
74403;BME280;62837;51.082;13.744;2023-04-10T06:11:33;101330.92;;;9.29;64.57
74403;BME280;62837;51.082;13.744;2023-04-10T06:14:05;101328.20;;;9.50;63.86
74403;BME280;62837;51.082;13.744;2023-04-10T06:16:43;101328.04;;;9.72;63.66
74403;BME280;62837;51.082;13.744;2023-04-10T06:19:14;101323.53;;;10.05;62.91
74403;BME280;62837;51.082;13.744;2023-04-10T06:21:44;101324.48;;;10.33;62.06
74403;BME280;62837;51.082;13.744;2023-04-10T06:24:15;101322.13;;;10.54;61.48
74403;BME280;62837;51.082;13.744;2023-04-10T06:26:48;101325.60;;;10.80;61.14
74403;BME280;62837;51.082;13.744;2023-04-10T06:29:19;101321.42;;;11.16;60.55
74403;BME280;62837;51.082;13.744;2023-04-10T06:31:50;101321.05;;;11.51;59.55
74403;BME280;62837;51.082;13.744;2023-04-10T06:34:21;101315.00;;;11.79;58.61
74403;BME280;62837;51.082;13.744;2023-04-10T06:37:00;101312.80;;;12.03;58.21
74403;BME280;62837;51.082;13.744;2023-04-10T06:39:31;101307.45;;;12.29;57.57
74403;BME280;62837;51.082;13.744;2023-04-10T06:42:02;101305.75;;;12.58;57.02
74403;BME280;62837;51.082;13.744;2023-04-10T06:44:43;101306.16;;;12.90;56.29
74403;BME280;62837;51.082;13.744;2023-04-10T06:47:14;101308.36;;;13.10;55.49
74403;BME280;62837;51.082;13.744;2023-04-10T06:49:46;101307.61;;;13.30;54.90
74403;BME280;62837;51.082;13.744;2023-04-10T06:52:18;101312.41;;;13.45;53.89
74403;BME280;62837;51.082;13.744;2023-04-10T06:54:49;101306.20;;;13.56;54.00
74403;BME280;62837;51.082;13.744;2023-04-10T06:57:19;101307.29;;;13.71;54.14
74403;BME280;62837;51.082;13.744;2023-04-10T06:59:50;101305.44;;;13.97;53.62
74403;BME280;62837;51.082;13.744;2023-04-10T07:02:21;101301.45;;;14.21;52.51
74403;BME280;62837;51.082;13.744;2023-04-10T07:04:52;101298.40;;;14.40;51.58
74403;BME280;62837;51.082;13.744;2023-04-10T07:07:23;101297.53;;;14.49;51.63
74403;BME280;62837;51.082;13.744;2023-04-10T07:09:53;101294.49;;;14.62;51.32
74403;BME280;62837;51.082;13.744;2023-04-10T07:12:24;101292.19;;;14.76;50.91
74403;BME280;62837;51.082;13.744;2023-04-10T07:14:55;101287.50;;;14.85;49.96
74403;BME280;62837;51.082;13.744;2023-04-10T07:17:26;101288.71;;;14.94;49.88
74403;BME280;62837;51.082;13.744;2023-04-10T07:19:56;101283.96;;;15.03;49.98
74403;BME280;62837;51.082;13.744;2023-04-10T07:22:27;101285.45;;;15.17;49.47
74403;BME280;62837;51.082;13.744;2023-04-10T07:24:58;101287.65;;;15.26;49.14
74403;BME280;62837;51.082;13.744;2023-04-10T07:27:28;101289.34;;;15.29;49.21
74403;BME280;62837;51.082;13.744;2023-04-10T07:29:59;101283.73;;;15.36;49.53
74403;BME280;62837;51.082;13.744;2023-04-10T07:32:30;101282.30;;;15.48;49.49
74403;BME280;62837;51.082;13.744;2023-04-10T07:35:02;101276.52;;;15.57;48.87
74403;BME280;62837;51.082;13.744;2023-04-10T07:37:33;101272.85;;;15.62;48.20
74403;BME280;62837;51.082;13.744;2023-04-10T07:40:05;101269.70;;;15.65;48.01
74403;BME280;62837;51.082;13.744;2023-04-10T07:42:36;101266.45;;;15.73;47.97
74403;BME280;62837;51.082;13.744;2023-04-10T07:45:09;101265.61;;;15.85;48.30
74403;BME280;62837;51.082;13.744;2023-04-10T07:47:40;101262.76;;;15.98;48.53
74403;BME280;62837;51.082;13.744;2023-04-10T07:50:11;101261.06;;;16.05;48.19
74403;BME280;62837;51.082;13.744;2023-04-10T07:52:42;101258.53;;;16.19;47.84
74403;BME280;62837;51.082;13.744;2023-04-10T07:55:12;101253.77;;;16.26;47.26
74403;BME280;62837;51.082;13.744;2023-04-10T07:57:44;101256.36;;;16.19;47.07
74403;BME280;62837;51.082;13.744;2023-04-10T08:00:17;101257.84;;;16.07;46.89
74403;BME280;62837;51.082;13.744;2023-04-10T08:02:47;101256.23;;;16.09;47.25
74403;BME280;62837;51.082;13.744;2023-04-10T08:05:18;101251.45;;;16.02;47.28
74403;BME280;62837;51.082;13.744;2023-04-10T08:07:49;101249.88;;;16.22;47.00
74403;BME280;62837;51.082;13.744;2023-04-10T08:10:20;101249.02;;;16.38;45.74
74403;BME280;62837;51.082;13.744;2023-04-10T08:12:51;101251.34;;;16.45;45.79
74403;BME280;62837;51.082;13.744;2023-04-10T08:15:22;101252.86;;;16.56;45.87
74403;BME280;62837;51.082;13.744;2023-04-10T08:17:53;101247.02;;;16.75;46.11
74403;BME280;62837;51.082;13.744;2023-04-10T08:20:24;101243.45;;;16.94;45.93
74403;BME280;62837;51.082;13.744;2023-04-10T08:22:55;101241.59;;;17.10;46.18
74403;BME280;62837;51.082;13.744;2023-04-10T08:25:41;101236.92;;;17.24;45.36
74403;BME280;62837;51.082;13.744;2023-04-10T08:28:11;101236.79;;;17.34;45.60
74403;BME280;62837;51.082;13.744;2023-04-10T08:30:42;101234.14;;;17.44;45.01
74403;BME280;62837;51.082;13.744;2023-04-10T08:33:14;101233.02;;;17.46;44.31
74403;BME280;62837;51.082;13.744;2023-04-10T08:35:47;101228.47;;;17.55;44.35
74403;BME280;62837;51.082;13.744;2023-04-10T08:38:18;101227.21;;;17.68;44.11
74403;BME280;62837;51.082;13.744;2023-04-10T08:40:49;101223.55;;;17.77;44.11
74403;BME280;62837;51.082;13.744;2023-04-10T08:43:20;101221.91;;;17.80;43.55
74403;BME280;62837;51.082;13.744;2023-04-10T08:45:52;101220.42;;;17.88;43.80
74403;BME280;62837;51.082;13.744;2023-04-10T08:48:34;101216.33;;;17.94;44.08
74403;BME280;62837;51.082;13.744;2023-04-10T08:51:10;101207.16;;;18.01;44.11
74403;BME280;62837;51.082;13.744;2023-04-10T08:53:50;101210.12;;;18.15;43.73
74403;BME280;62837;51.082;13.744;2023-04-10T08:56:25;101209.61;;;18.22;43.43
74403;BME280;62837;51.082;13.744;2023-04-10T08:58:54;101209.59;;;18.26;42.84
74403;BME280;62837;51.082;13.744;2023-04-10T09:01:25;101204.11;;;18.29;42.84
74403;BME280;62837;51.082;13.744;2023-04-10T09:03:56;101208.33;;;18.37;43.36
74403;BME280;62837;51.082;13.744;2023-04-10T09:06:27;101204.82;;;18.44;42.82
74403;BME280;62837;51.082;13.744;2023-04-10T09:08:57;101199.89;;;18.47;41.99
74403;BME280;62837;51.082;13.744;2023-04-10T09:11:59;101192.98;;;18.41;41.79
74403;BME280;62837;51.082;13.744;2023-04-10T09:14:33;101192.85;;;18.30;41.99
74403;BME280;62837;51.082;13.744;2023-04-10T09:17:16;101189.86;;;18.21;41.81
74403;BME280;62837;51.082;13.744;2023-04-10T09:19:49;101188.27;;;18.25;42.45
74403;BME280;62837;51.082;13.744;2023-04-10T09:22:30;101184.47;;;18.33;42.27
74403;BME280;62837;51.082;13.744;2023-04-10T09:25:02;101186.63;;;18.48;42.17
74403;BME280;62837;51.082;13.744;2023-04-10T09:27:34;101185.95;;;18.64;41.77
74403;BME280;62837;51.082;13.744;2023-04-10T09:30:07;101177.62;;;18.66;41.19
74403;BME280;62837;51.082;13.744;2023-04-10T09:32:41;101183.66;;;18.64;41.39
74403;BME280;62837;51.082;13.744;2023-04-10T09:35:13;101177.11;;;18.72;41.08
74403;BME280;62837;51.082;13.744;2023-04-10T09:37:46;101170.29;;;18.71;39.56
74403;BME280;62837;51.082;13.744;2023-04-10T09:40:23;101168.21;;;18.65;40.71
74403;BME280;62837;51.082;13.744;2023-04-10T09:42:55;101162.72;;;18.69;40.10
74403;BME280;62837;51.082;13.744;2023-04-10T09:45:25;101156.43;;;18.73;40.10
74403;BME280;62837;51.082;13.744;2023-04-10T09:48:04;101154.00;;;18.77;41.21
74403;BME280;62837;51.082;13.744;2023-04-10T09:50:38;101145.73;;;18.84;40.75
74403;BME280;62837;51.082;13.744;2023-04-10T09:53:11;101142.48;;;18.91;40.47
74403;BME280;62837;51.082;13.744;2023-04-10T09:55:42;101144.59;;;18.92;40.14
74403;BME280;62837;51.082;13.744;2023-04-10T09:58:14;101137.88;;;18.93;37.61
74403;BME280;62837;51.082;13.744;2023-04-10T10:00:46;101137.59;;;18.85;37.37
74403;BME280;62837;51.082;13.744;2023-04-10T10:03:17;101132.17;;;18.71;37.53
74403;BME280;62837;51.082;13.744;2023-04-10T10:05:51;101122.23;;;18.57;38.35
74403;BME280;62837;51.082;13.744;2023-04-10T10:08:22;101126.95;;;18.45;39.02
74403;BME280;62837;51.082;13.744;2023-04-10T10:10:54;101128.94;;;18.41;38.60
74403;BME280;62837;51.082;13.744;2023-04-10T10:13:31;101121.98;;;18.49;37.60
74403;BME280;62837;51.082;13.744;2023-04-10T10:16:09;101120.31;;;18.51;37.59
74403;BME280;62837;51.082;13.744;2023-04-10T10:18:46;101120.36;;;18.52;37.64
74403;BME280;62837;51.082;13.744;2023-04-10T10:21:22;101108.98;;;18.47;37.20
74403;BME280;62837;51.082;13.744;2023-04-10T10:23:55;101104.86;;;18.36;37.83
74403;BME280;62837;51.082;13.744;2023-04-10T10:26:29;101100.44;;;18.20;38.28
74403;BME280;62837;51.082;13.744;2023-04-10T10:29:04;101089.98;;;18.09;38.76
74403;BME280;62837;51.082;13.744;2023-04-10T10:31:38;101086.63;;;18.16;39.07
74403;BME280;62837;51.082;13.744;2023-04-10T10:34:09;101085.60;;;18.30;39.75
74403;BME280;62837;51.082;13.744;2023-04-10T10:36:40;101081.05;;;18.39;38.76
74403;BME280;62837;51.082;13.744;2023-04-10T10:39:22;101080.87;;;18.34;38.88
74403;BME280;62837;51.082;13.744;2023-04-10T10:42:01;101067.66;;;18.41;38.78
74403;BME280;62837;51.082;13.744;2023-04-10T10:44:40;101068.64;;;18.44;39.20
74403;BME280;62837;51.082;13.744;2023-04-10T10:47:17;101063.84;;;18.24;38.73
74403;BME280;62837;51.082;13.744;2023-04-10T10:50:00;101059.89;;;18.22;39.07
74403;BME280;62837;51.082;13.744;2023-04-10T10:52:45;101073.58;;;18.29;38.79
74403;BME280;62837;51.082;13.744;2023-04-10T10:55:33;101062.55;;;18.28;38.89
74403;BME280;62837;51.082;13.744;2023-04-10T10:58:07;101061.70;;;18.20;39.29
74403;BME280;62837;51.082;13.744;2023-04-10T11:01:06;101050.94;;;18.15;40.04
74403;BME280;62837;51.082;13.744;2023-04-10T11:03:39;101038.23;;;18.17;40.49
74403;BME280;62837;51.082;13.744;2023-04-10T11:06:11;101038.12;;;18.22;40.51
74403;BME280;62837;51.082;13.744;2023-04-10T11:08:46;101032.46;;;18.26;40.06
74403;BME280;62837;51.082;13.744;2023-04-10T11:11:18;101032.47;;;18.30;39.36
74403;BME280;62837;51.082;13.744;2023-04-10T11:14:15;101019.66;;;18.36;39.27
74403;BME280;62837;51.082;13.744;2023-04-10T11:16:47;101022.75;;;18.28;39.31
74403;BME280;62837;51.082;13.744;2023-04-10T11:19:18;101018.62;;;18.24;38.95
74403;BME280;62837;51.082;13.744;2023-04-10T11:22:06;101015.98;;;18.10;38.95
74403;BME280;62837;51.082;13.744;2023-04-10T11:25:00;101002.37;;;17.96;38.75
74403;BME280;62837;51.082;13.744;2023-04-10T11:27:41;101000.61;;;17.94;39.05
74403;BME280;62837;51.082;13.744;2023-04-10T11:30:28;101005.00;;;17.94;38.77
74403;BME280;62837;51.082;13.744;2023-04-10T11:32:59;100990.25;;;17.95;38.76
74403;BME280;62837;51.082;13.744;2023-04-10T11:35:31;100984.97;;;17.99;39.39
74403;BME280;62837;51.082;13.744;2023-04-10T11:38:14;100982.31;;;18.05;38.33
74403;BME280;62837;51.082;13.744;2023-04-10T11:40:59;100987.23;;;17.91;38.04
74403;BME280;62837;51.082;13.744;2023-04-10T11:43:31;100981.88;;;17.81;37.62
74403;BME280;62837;51.082;13.744;2023-04-10T11:46:05;100975.20;;;17.76;38.13
74403;BME280;62837;51.082;13.744;2023-04-10T11:48:37;100967.15;;;17.79;38.46
74403;BME280;62837;51.082;13.744;2023-04-10T11:51:12;100967.55;;;17.79;38.19
74403;BME280;62837;51.082;13.744;2023-04-10T11:53:43;100963.13;;;17.76;38.20
74403;BME280;62837;51.082;13.744;2023-04-10T11:56:21;100960.94;;;17.73;37.30
74403;BME280;62837;51.082;13.744;2023-04-10T11:58:52;100972.00;;;17.67;37.01
74403;BME280;62837;51.082;13.744;2023-04-10T12:01:23;100952.92;;;17.58;37.11
74403;BME280;62837;51.082;13.744;2023-04-10T12:03:54;100951.77;;;17.54;37.59
74403;BME280;62837;51.082;13.744;2023-04-10T12:06:26;100946.04;;;17.55;38.11
74403;BME280;62837;51.082;13.744;2023-04-10T12:08:57;100937.10;;;17.58;38.97
74403;BME280;62837;51.082;13.744;2023-04-10T12:11:27;100944.08;;;17.59;39.60
74403;BME280;62837;51.082;13.744;2023-04-10T12:13:58;100940.52;;;17.60;37.87
74403;BME280;62837;51.082;13.744;2023-04-10T12:16:29;100940.34;;;17.58;37.45
74403;BME280;62837;51.082;13.744;2023-04-10T12:19:02;100932.08;;;17.56;37.26
74403;BME280;62837;51.082;13.744;2023-04-10T12:21:33;100933.56;;;17.58;37.55
74403;BME280;62837;51.082;13.744;2023-04-10T12:24:05;100929.05;;;17.62;38.18
74403;BME280;62837;51.082;13.744;2023-04-10T12:26:36;100937.45;;;17.69;37.86
74403;BME280;62837;51.082;13.744;2023-04-10T12:29:07;100930.29;;;17.72;36.25
74403;BME280;62837;51.082;13.744;2023-04-10T12:31:38;100926.88;;;17.73;36.73
74403;BME280;62837;51.082;13.744;2023-04-10T12:34:09;100918.19;;;17.74;36.13
74403;BME280;62837;51.082;13.744;2023-04-10T12:36:40;100920.24;;;17.74;35.99
74403;BME280;62837;51.082;13.744;2023-04-10T12:39:23;100912.39;;;17.76;36.15
74403;BME280;62837;51.082;13.744;2023-04-10T12:42:11;100911.00;;;17.80;36.02
74403;BME280;62837;51.082;13.744;2023-04-10T12:44:53;100920.90;;;17.81;35.70
74403;BME280;62837;51.082;13.744;2023-04-10T12:47:25;100911.95;;;17.79;35.59
74403;BME280;62837;51.082;13.744;2023-04-10T12:50:06;100914.55;;;17.78;34.53
74403;BME280;62837;51.082;13.744;2023-04-10T12:52:39;100914.80;;;17.74;33.52
74403;BME280;62837;51.082;13.744;2023-04-10T12:55:15;100905.15;;;17.70;33.27
74403;BME280;62837;51.082;13.744;2023-04-10T12:57:47;100894.46;;;17.66;33.20
74403;BME280;62837;51.082;13.744;2023-04-10T13:00:20;100888.46;;;17.65;33.81
74403;BME280;62837;51.082;13.744;2023-04-10T13:02:51;100893.69;;;17.66;33.87
74403;BME280;62837;51.082;13.744;2023-04-10T13:05:22;100897.31;;;17.65;33.08
74403;BME280;62837;51.082;13.744;2023-04-10T13:07:53;100889.51;;;17.61;32.47
74403;BME280;62837;51.082;13.744;2023-04-10T13:10:24;100896.35;;;17.58;32.07
74403;BME280;62837;51.082;13.744;2023-04-10T13:12:55;100887.27;;;17.50;32.09
74403;BME280;62837;51.082;13.744;2023-04-10T13:15:26;100880.67;;;17.45;31.90
74403;BME280;62837;51.082;13.744;2023-04-10T13:17:56;100883.44;;;17.42;32.22
74403;BME280;62837;51.082;13.744;2023-04-10T13:20:27;100869.10;;;17.41;32.79
74403;BME280;62837;51.082;13.744;2023-04-10T13:22:59;100869.48;;;17.43;33.13
74403;BME280;62837;51.082;13.744;2023-04-10T13:25:33;100866.13;;;17.43;33.01
74403;BME280;62837;51.082;13.744;2023-04-10T13:28:05;100863.87;;;17.41;32.96